sensor_id;sensor_type;location;lat;lon;timestamp;temperature;humidity
52965;DHT22;42923;53.220;6.528;2022-08-19T00:01:34;14.10;99.90
52965;DHT22;42923;53.220;6.528;2022-08-19T00:04:03;14.10;99.90
52965;DHT22;42923;53.220;6.528;2022-08-19T00:06:30;14.10;99.90
52965;DHT22;42923;53.220;6.528;2022-08-19T00:08:57;14.10;99.90
52965;DHT22;42923;53.220;6.528;2022-08-19T00:11:24;14.10;99.90
52965;DHT22;42923;53.220;6.528;2022-08-19T00:13:54;14.20;99.90
52965;DHT22;42923;53.220;6.528;2022-08-19T00:16:21;14.10;99.90
52965;DHT22;42923;53.220;6.528;2022-08-19T00:18:47;14.00;99.90
52965;DHT22;42923;53.220;6.528;2022-08-19T00:21:14;14.20;99.90
52965;DHT22;42923;53.220;6.528;2022-08-19T00:23:41;14.00;99.90
52965;DHT22;42923;53.220;6.528;2022-08-19T00:26:08;14.00;99.90
52965;DHT22;42923;53.220;6.528;2022-08-19T00:28:34;14.10;99.90
52965;DHT22;42923;53.220;6.528;2022-08-19T00:31:02;14.00;99.90
52965;DHT22;42923;53.220;6.528;2022-08-19T00:33:29;14.00;99.90
52965;DHT22;42923;53.220;6.528;2022-08-19T00:35:59;14.10;99.90
52965;DHT22;42923;53.220;6.528;2022-08-19T00:38:25;14.00;99.90
52965;DHT22;42923;53.220;6.528;2022-08-19T00:40:50;14.00;99.90
52965;DHT22;42923;53.220;6.528;2022-08-19T00:43:20;13.90;99.90
52965;DHT22;42923;53.220;6.528;2022-08-19T00:45:46;13.90;99.90
52965;DHT22;42923;53.220;6.528;2022-08-19T00:48:12;14.10;99.90
52965;DHT22;42923;53.220;6.528;2022-08-19T00:50:40;14.00;99.90
52965;DHT22;42923;53.220;6.528;2022-08-19T00:53:10;13.90;99.90
52965;DHT22;42923;53.220;6.528;2022-08-19T00:55:37;14.10;99.90
52965;DHT22;42923;53.220;6.528;2022-08-19T00:58:09;13.90;99.90
52965;DHT22;42923;53.220;6.528;2022-08-19T01:00:36;13.90;99.90
52965;DHT22;42923;53.220;6.528;2022-08-19T01:03:06;13.90;99.90
52965;DHT22;42923;53.220;6.528;2022-08-19T01:05:32;14.00;99.90
52965;DHT22;42923;53.220;6.528;2022-08-19T01:08:00;13.80;99.90
52965;DHT22;42923;53.220;6.528;2022-08-19T01:10:29;13.90;99.90
52965;DHT22;42923;53.220;6.528;2022-08-19T01:12:58;13.90;99.90
52965;DHT22;42923;53.220;6.528;2022-08-19T01:15:32;13.80;99.90
52965;DHT22;42923;53.220;6.528;2022-08-19T01:18:07;13.80;99.90
52965;DHT22;42923;53.220;6.528;2022-08-19T01:20:33;13.80;99.90
52965;DHT22;42923;53.220;6.528;2022-08-19T01:23:00;13.80;99.90
52965;DHT22;42923;53.220;6.528;2022-08-19T01:25:44;13.70;99.90
52965;DHT22;42923;53.220;6.528;2022-08-19T01:28:24;13.70;99.90
52965;DHT22;42923;53.220;6.528;2022-08-19T01:30:54;13.80;99.90
52965;DHT22;42923;53.220;6.528;2022-08-19T01:33:20;13.70;99.90
52965;DHT22;42923;53.220;6.528;2022-08-19T01:35:47;13.70;99.90
52965;DHT22;42923;53.220;6.528;2022-08-19T01:38:24;13.70;99.90
52965;DHT22;42923;53.220;6.528;2022-08-19T01:40:50;13.70;99.90
52965;DHT22;42923;53.220;6.528;2022-08-19T01:43:16;13.60;99.90
52965;DHT22;42923;53.220;6.528;2022-08-19T01:45:42;13.60;99.90
52965;DHT22;42923;53.220;6.528;2022-08-19T01:48:08;13.60;99.90
52965;DHT22;42923;53.220;6.528;2022-08-19T01:50:35;13.60;99.90
52965;DHT22;42923;53.220;6.528;2022-08-19T01:53:03;13.70;99.90
52965;DHT22;42923;53.220;6.528;2022-08-19T01:55:29;13.70;99.90
52965;DHT22;42923;53.220;6.528;2022-08-19T01:57:58;13.60;99.90
52965;DHT22;42923;53.220;6.528;2022-08-19T02:00:28;13.60;99.90
52965;DHT22;42923;53.220;6.528;2022-08-19T02:02:54;13.60;99.90
52965;DHT22;42923;53.220;6.528;2022-08-19T02:05:20;13.60;99.90
52965;DHT22;42923;53.220;6.528;2022-08-19T02:07:47;13.60;99.90
52965;DHT22;42923;53.220;6.528;2022-08-19T02:10:17;13.50;99.90
52965;DHT22;42923;53.220;6.528;2022-08-19T02:12:44;13.50;99.90
52965;DHT22;42923;53.220;6.528;2022-08-19T02:15:11;13.60;99.90
52965;DHT22;42923;53.220;6.528;2022-08-19T02:17:37;13.70;99.90
52965;DHT22;42923;53.220;6.528;2022-08-19T02:20:03;13.70;99.90
52965;DHT22;42923;53.220;6.528;2022-08-19T02:22:30;13.50;99.90
52965;DHT22;42923;53.220;6.528;2022-08-19T02:24:56;13.60;99.90
52965;DHT22;42923;53.220;6.528;2022-08-19T02:27:22;13.50;99.90
52965;DHT22;42923;53.220;6.528;2022-08-19T02:29:49;13.50;99.90
52965;DHT22;42923;53.220;6.528;2022-08-19T02:32:17;13.50;99.90
52965;DHT22;42923;53.220;6.528;2022-08-19T02:34:43;13.50;99.90
52965;DHT22;42923;53.220;6.528;2022-08-19T02:37:09;13.50;99.90
52965;DHT22;42923;53.220;6.528;2022-08-19T02:39:55;13.60;99.90
52965;DHT22;42923;53.220;6.528;2022-08-19T02:42:20;13.60;99.90
52965;DHT22;42923;53.220;6.528;2022-08-19T02:44:46;13.60;99.90
52965;DHT22;42923;53.220;6.528;2022-08-19T02:47:12;13.60;99.90
52965;DHT22;42923;53.220;6.528;2022-08-19T02:49:39;13.70;99.90
52965;DHT22;42923;53.220;6.528;2022-08-19T02:52:05;13.70;99.90
52965;DHT22;42923;53.220;6.528;2022-08-19T02:54:31;13.70;99.90
52965;DHT22;42923;53.220;6.528;2022-08-19T02:56:56;13.60;99.90
52965;DHT22;42923;53.220;6.528;2022-08-19T02:59:22;13.70;99.90
52965;DHT22;42923;53.220;6.528;2022-08-19T03:01:48;13.70;99.90
52965;DHT22;42923;53.220;6.528;2022-08-19T03:04:15;13.70;99.90
52965;DHT22;42923;53.220;6.528;2022-08-19T03:06:43;13.70;99.90
52965;DHT22;42923;53.220;6.528;2022-08-19T03:09:10;13.70;99.90
52965;DHT22;42923;53.220;6.528;2022-08-19T03:11:36;13.80;99.90
52965;DHT22;42923;53.220;6.528;2022-08-19T03:14:04;13.60;99.90
52965;DHT22;42923;53.220;6.528;2022-08-19T03:16:32;13.60;99.90
52965;DHT22;42923;53.220;6.528;2022-08-19T03:18:58;13.50;99.90
52965;DHT22;42923;53.220;6.528;2022-08-19T03:21:30;13.50;99.90
52965;DHT22;42923;53.220;6.528;2022-08-19T03:23:58;13.50;99.90
52965;DHT22;42923;53.220;6.528;2022-08-19T03:26:24;13.50;99.90
52965;DHT22;42923;53.220;6.528;2022-08-19T03:28:50;13.50;99.90
52965;DHT22;42923;53.220;6.528;2022-08-19T03:31:21;13.50;99.90
52965;DHT22;42923;53.220;6.528;2022-08-19T03:33:49;13.50;99.90
52965;DHT22;42923;53.220;6.528;2022-08-19T03:36:17;13.60;99.90
52965;DHT22;42923;53.220;6.528;2022-08-19T03:38:45;13.50;99.90
52965;DHT22;42923;53.220;6.528;2022-08-19T03:41:15;13.60;99.90
52965;DHT22;42923;53.220;6.528;2022-08-19T03:43:42;13.60;99.90
52965;DHT22;42923;53.220;6.528;2022-08-19T03:46:11;13.50;99.90
52965;DHT22;42923;53.220;6.528;2022-08-19T03:48:39;13.60;99.90
52965;DHT22;42923;53.220;6.528;2022-08-19T03:51:06;13.50;99.90
52965;DHT22;42923;53.220;6.528;2022-08-19T03:53:34;13.50;99.90
52965;DHT22;42923;53.220;6.528;2022-08-19T03:56:00;13.40;99.90
52965;DHT22;42923;53.220;6.528;2022-08-19T03:58:29;13.40;99.90
52965;DHT22;42923;53.220;6.528;2022-08-19T04:00:56;13.40;99.90
52965;DHT22;42923;53.220;6.528;2022-08-19T04:03:23;13.40;99.90
52965;DHT22;42923;53.220;6.528;2022-08-19T04:05:50;13.40;99.90
52965;DHT22;42923;53.220;6.528;2022-08-19T04:08:16;13.40;99.90
52965;DHT22;42923;53.220;6.528;2022-08-19T04:10:46;13.40;99.90
52965;DHT22;42923;53.220;6.528;2022-08-19T04:13:14;13.40;99.90
52965;DHT22;42923;53.220;6.528;2022-08-19T04:15:42;13.40;99.90
52965;DHT22;42923;53.220;6.528;2022-08-19T04:18:09;13.30;99.90
52965;DHT22;42923;53.220;6.528;2022-08-19T04:20:45;13.40;99.90
52965;DHT22;42923;53.220;6.528;2022-08-19T04:23:12;13.40;99.90
52965;DHT22;42923;53.220;6.528;2022-08-19T04:25:43;13.40;99.90
52965;DHT22;42923;53.220;6.528;2022-08-19T04:28:11;13.40;99.90
52965;DHT22;42923;53.220;6.528;2022-08-19T04:30:43;13.30;99.90
52965;DHT22;42923;53.220;6.528;2022-08-19T04:33:12;13.40;99.90
52965;DHT22;42923;53.220;6.528;2022-08-19T04:35:44;13.40;99.90
52965;DHT22;42923;53.220;6.528;2022-08-19T04:38:11;13.40;99.90
52965;DHT22;42923;53.220;6.528;2022-08-19T04:40:41;13.40;99.90
52965;DHT22;42923;53.220;6.528;2022-08-19T04:43:26;13.40;99.90
52965;DHT22;42923;53.220;6.528;2022-08-19T04:45:52;13.40;99.90
52965;DHT22;42923;53.220;6.528;2022-08-19T04:48:18;13.40;99.90
52965;DHT22;42923;53.220;6.528;2022-08-19T04:50:53;13.40;99.90
52965;DHT22;42923;53.220;6.528;2022-08-19T04:53:30;13.40;99.90
52965;DHT22;42923;53.220;6.528;2022-08-19T04:55:57;13.40;99.90
52965;DHT22;42923;53.220;6.528;2022-08-19T04:58:25;13.50;99.90
52965;DHT22;42923;53.220;6.528;2022-08-19T05:00:51;13.50;99.90
52965;DHT22;42923;53.220;6.528;2022-08-19T05:03:17;13.60;99.90
52965;DHT22;42923;53.220;6.528;2022-08-19T05:05:44;13.80;99.90
52965;DHT22;42923;53.220;6.528;2022-08-19T05:08:12;13.60;99.90
52965;DHT22;42923;53.220;6.528;2022-08-19T05:10:39;13.70;99.90
52965;DHT22;42923;53.220;6.528;2022-08-19T05:13:06;13.90;99.90
52965;DHT22;42923;53.220;6.528;2022-08-19T05:15:31;13.70;99.90
52965;DHT22;42923;53.220;6.528;2022-08-19T05:17:57;13.80;99.90
52965;DHT22;42923;53.220;6.528;2022-08-19T05:20:41;13.80;99.90
52965;DHT22;42923;53.220;6.528;2022-08-19T05:23:25;13.90;99.90
52965;DHT22;42923;53.220;6.528;2022-08-19T05:25:52;13.90;99.90
52965;DHT22;42923;53.220;6.528;2022-08-19T05:28:19;14.00;99.90
52965;DHT22;42923;53.220;6.528;2022-08-19T05:30:45;14.00;99.90
52965;DHT22;42923;53.220;6.528;2022-08-19T05:33:11;14.10;99.90
52965;DHT22;42923;53.220;6.528;2022-08-19T05:35:38;14.20;99.90
52965;DHT22;42923;53.220;6.528;2022-08-19T05:38:05;14.20;99.90
52965;DHT22;42923;53.220;6.528;2022-08-19T05:40:36;14.30;99.90
52965;DHT22;42923;53.220;6.528;2022-08-19T05:43:04;14.40;99.90
52965;DHT22;42923;53.220;6.528;2022-08-19T05:45:30;14.50;99.90
52965;DHT22;42923;53.220;6.528;2022-08-19T05:47:55;14.60;99.90
52965;DHT22;42923;53.220;6.528;2022-08-19T05:50:21;14.60;99.90
52965;DHT22;42923;53.220;6.528;2022-08-19T05:52:47;14.70;99.90
52965;DHT22;42923;53.220;6.528;2022-08-19T05:55:13;14.70;99.90
52965;DHT22;42923;53.220;6.528;2022-08-19T05:57:39;14.80;99.90
52965;DHT22;42923;53.220;6.528;2022-08-19T06:00:05;14.80;99.90
52965;DHT22;42923;53.220;6.528;2022-08-19T06:02:37;14.90;99.90
52965;DHT22;42923;53.220;6.528;2022-08-19T06:05:04;14.90;99.90
52965;DHT22;42923;53.220;6.528;2022-08-19T06:07:32;15.00;99.90
52965;DHT22;42923;53.220;6.528;2022-08-19T06:09:58;15.10;99.90
52965;DHT22;42923;53.220;6.528;2022-08-19T06:12:24;15.20;99.90
52965;DHT22;42923;53.220;6.528;2022-08-19T06:14:59;15.20;99.90
52965;DHT22;42923;53.220;6.528;2022-08-19T06:17:25;15.30;99.90
52965;DHT22;42923;53.220;6.528;2022-08-19T06:19:51;15.30;99.90
52965;DHT22;42923;53.220;6.528;2022-08-19T06:22:17;15.40;99.90
52965;DHT22;42923;53.220;6.528;2022-08-19T06:24:43;15.40;99.90
52965;DHT22;42923;53.220;6.528;2022-08-19T06:27:09;15.60;99.90
52965;DHT22;42923;53.220;6.528;2022-08-19T06:29:35;15.60;99.90
52965;DHT22;42923;53.220;6.528;2022-08-19T06:32:02;15.70;99.90
52965;DHT22;42923;53.220;6.528;2022-08-19T06:34:31;15.80;99.90
52965;DHT22;42923;53.220;6.528;2022-08-19T06:36:59;16.00;99.90
52965;DHT22;42923;53.220;6.528;2022-08-19T06:39:30;16.10;99.90
52965;DHT22;42923;53.220;6.528;2022-08-19T06:41:59;16.30;99.90
52965;DHT22;42923;53.220;6.528;2022-08-19T06:44:30;16.40;99.90
52965;DHT22;42923;53.220;6.528;2022-08-19T06:47:02;16.40;99.90
52965;DHT22;42923;53.220;6.528;2022-08-19T06:49:28;16.60;99.90
52965;DHT22;42923;53.220;6.528;2022-08-19T06:51:56;16.70;99.90
52965;DHT22;42923;53.220;6.528;2022-08-19T06:54:25;16.80;99.90
52965;DHT22;42923;53.220;6.528;2022-08-19T06:56:51;17.00;99.90
52965;DHT22;42923;53.220;6.528;2022-08-19T06:59:23;17.10;99.90
52965;DHT22;42923;53.220;6.528;2022-08-19T07:01:54;17.20;99.90
52965;DHT22;42923;53.220;6.528;2022-08-19T07:04:27;17.40;99.90
52965;DHT22;42923;53.220;6.528;2022-08-19T07:06:58;17.50;99.90
52965;DHT22;42923;53.220;6.528;2022-08-19T07:09:25;17.60;99.90
52965;DHT22;42923;53.220;6.528;2022-08-19T07:11:52;17.70;99.90
52965;DHT22;42923;53.220;6.528;2022-08-19T07:14:22;17.90;99.90
52965;DHT22;42923;53.220;6.528;2022-08-19T07:16:49;18.00;99.90
52965;DHT22;42923;53.220;6.528;2022-08-19T07:19:16;18.10;99.90
52965;DHT22;42923;53.220;6.528;2022-08-19T07:21:42;18.30;99.90
52965;DHT22;42923;53.220;6.528;2022-08-19T07:24:08;18.40;99.90
52965;DHT22;42923;53.220;6.528;2022-08-19T07:26:40;18.50;99.90
52965;DHT22;42923;53.220;6.528;2022-08-19T07:29:06;18.60;99.90
52965;DHT22;42923;53.220;6.528;2022-08-19T07:31:32;18.80;99.90
52965;DHT22;42923;53.220;6.528;2022-08-19T07:34:04;18.90;99.90
52965;DHT22;42923;53.220;6.528;2022-08-19T07:36:34;19.10;99.90
52965;DHT22;42923;53.220;6.528;2022-08-19T07:39:08;19.30;99.90
52965;DHT22;42923;53.220;6.528;2022-08-19T07:41:35;19.40;99.90
52965;DHT22;42923;53.220;6.528;2022-08-19T07:44:04;19.50;99.90
52965;DHT22;42923;53.220;6.528;2022-08-19T07:46:32;19.60;99.90
52965;DHT22;42923;53.220;6.528;2022-08-19T07:48:59;19.70;99.90
52965;DHT22;42923;53.220;6.528;2022-08-19T07:51:26;19.80;99.90
52965;DHT22;42923;53.220;6.528;2022-08-19T07:53:53;20.10;99.90
52965;DHT22;42923;53.220;6.528;2022-08-19T07:56:20;20.40;99.90
52965;DHT22;42923;53.220;6.528;2022-08-19T07:58:48;20.70;99.90
52965;DHT22;42923;53.220;6.528;2022-08-19T08:01:20;20.80;99.90
52965;DHT22;42923;53.220;6.528;2022-08-19T08:03:48;20.80;99.90
52965;DHT22;42923;53.220;6.528;2022-08-19T08:06:32;20.80;99.90
52965;DHT22;42923;53.220;6.528;2022-08-19T08:09:21;20.90;99.90
52965;DHT22;42923;53.220;6.528;2022-08-19T08:11:51;21.00;99.90
52965;DHT22;42923;53.220;6.528;2022-08-19T08:14:20;21.10;99.90
52965;DHT22;42923;53.220;6.528;2022-08-19T08:16:48;21.10;99.90
52965;DHT22;42923;53.220;6.528;2022-08-19T08:19:16;21.10;99.90
52965;DHT22;42923;53.220;6.528;2022-08-19T08:21:42;21.10;99.90
52965;DHT22;42923;53.220;6.528;2022-08-19T08:24:08;21.10;99.90
52965;DHT22;42923;53.220;6.528;2022-08-19T08:26:33;21.10;99.90
52965;DHT22;42923;53.220;6.528;2022-08-19T08:28:59;21.20;99.90
52965;DHT22;42923;53.220;6.528;2022-08-19T08:31:25;21.20;99.90
52965;DHT22;42923;53.220;6.528;2022-08-19T08:33:50;21.30;99.90
52965;DHT22;42923;53.220;6.528;2022-08-19T08:36:17;21.40;99.90
52965;DHT22;42923;53.220;6.528;2022-08-19T08:38:43;21.50;99.90
52965;DHT22;42923;53.220;6.528;2022-08-19T08:41:25;21.50;99.90
52965;DHT22;42923;53.220;6.528;2022-08-19T08:43:54;21.70;99.90
52965;DHT22;42923;53.220;6.528;2022-08-19T08:46:28;21.80;99.90
52965;DHT22;42923;53.220;6.528;2022-08-19T08:52:03;22.00;99.90
52965;DHT22;42923;53.220;6.528;2022-08-19T08:54:40;22.10;99.90
52965;DHT22;42923;53.220;6.528;2022-08-19T08:57:15;22.20;99.90
52965;DHT22;42923;53.220;6.528;2022-08-19T08:59:45;22.40;99.90
52965;DHT22;42923;53.220;6.528;2022-08-19T09:02:16;22.40;99.90
52965;DHT22;42923;53.220;6.528;2022-08-19T09:04:42;22.50;99.90
52965;DHT22;42923;53.220;6.528;2022-08-19T09:07:25;22.50;99.90
52965;DHT22;42923;53.220;6.528;2022-08-19T09:10:19;22.50;99.90
52965;DHT22;42923;53.220;6.528;2022-08-19T09:13:28;22.60;99.90
52965;DHT22;42923;53.220;6.528;2022-08-19T09:16:06;22.70;99.90
52965;DHT22;42923;53.220;6.528;2022-08-19T09:18:46;22.80;99.90
52965;DHT22;42923;53.220;6.528;2022-08-19T09:21:15;22.80;99.90
52965;DHT22;42923;53.220;6.528;2022-08-19T09:23:41;23.00;99.90
52965;DHT22;42923;53.220;6.528;2022-08-19T09:26:17;23.00;99.90
52965;DHT22;42923;53.220;6.528;2022-08-19T09:28:44;23.10;99.90
52965;DHT22;42923;53.220;6.528;2022-08-19T09:31:11;23.20;99.90
52965;DHT22;42923;53.220;6.528;2022-08-19T09:33:37;23.20;99.90
52965;DHT22;42923;53.220;6.528;2022-08-19T09:36:08;23.30;99.90
52965;DHT22;42923;53.220;6.528;2022-08-19T09:38:35;23.40;99.90
52965;DHT22;42923;53.220;6.528;2022-08-19T09:41:06;23.40;99.90
52965;DHT22;42923;53.220;6.528;2022-08-19T09:43:33;23.50;99.90
52965;DHT22;42923;53.220;6.528;2022-08-19T09:46:03;23.60;99.90
52965;DHT22;42923;53.220;6.528;2022-08-19T09:48:34;23.70;99.90
52965;DHT22;42923;53.220;6.528;2022-08-19T09:51:05;23.80;99.90
52965;DHT22;42923;53.220;6.528;2022-08-19T09:53:32;23.80;99.90
52965;DHT22;42923;53.220;6.528;2022-08-19T09:55:57;23.80;99.90
52965;DHT22;42923;53.220;6.528;2022-08-19T09:58:23;23.80;99.90
52965;DHT22;42923;53.220;6.528;2022-08-19T10:01:00;23.90;99.90
52965;DHT22;42923;53.220;6.528;2022-08-19T10:03:28;24.10;99.90
52965;DHT22;42923;53.220;6.528;2022-08-19T10:05:56;24.10;99.90
52965;DHT22;42923;53.220;6.528;2022-08-19T10:08:27;24.20;99.90
52965;DHT22;42923;53.220;6.528;2022-08-19T10:10:54;24.20;99.90
52965;DHT22;42923;53.220;6.528;2022-08-19T10:13:23;24.30;99.90
52965;DHT22;42923;53.220;6.528;2022-08-19T10:15:54;24.40;99.90
52965;DHT22;42923;53.220;6.528;2022-08-19T10:18:22;24.50;99.90
52965;DHT22;42923;53.220;6.528;2022-08-19T10:20:50;24.50;99.90
52965;DHT22;42923;53.220;6.528;2022-08-19T10:23:16;24.60;99.90
52965;DHT22;42923;53.220;6.528;2022-08-19T10:25:43;24.70;99.90
52965;DHT22;42923;53.220;6.528;2022-08-19T10:28:09;24.90;99.90
52965;DHT22;42923;53.220;6.528;2022-08-19T10:30:38;25.10;99.90
52965;DHT22;42923;53.220;6.528;2022-08-19T10:33:05;25.30;99.90
52965;DHT22;42923;53.220;6.528;2022-08-19T10:35:31;25.60;99.90
52965;DHT22;42923;53.220;6.528;2022-08-19T10:37:57;26.00;99.90
52965;DHT22;42923;53.220;6.528;2022-08-19T10:40:28;26.30;99.90
52965;DHT22;42923;53.220;6.528;2022-08-19T10:42:55;26.70;99.90
52965;DHT22;42923;53.220;6.528;2022-08-19T10:45:24;27.10;99.90
52965;DHT22;42923;53.220;6.528;2022-08-19T10:47:53;27.40;99.90
52965;DHT22;42923;53.220;6.528;2022-08-19T10:50:19;27.70;99.90
52965;DHT22;42923;53.220;6.528;2022-08-19T10:53:05;28.10;99.90
52965;DHT22;42923;53.220;6.528;2022-08-19T10:55:34;28.60;99.90
52965;DHT22;42923;53.220;6.528;2022-08-19T10:58:20;29.10;99.90
52965;DHT22;42923;53.220;6.528;2022-08-19T11:00:57;29.20;99.90
52965;DHT22;42923;53.220;6.528;2022-08-19T11:03:24;29.60;99.90
52965;DHT22;42923;53.220;6.528;2022-08-19T11:05:59;29.80;99.90
52965;DHT22;42923;53.220;6.528;2022-08-19T11:08:25;30.00;99.90
52965;DHT22;42923;53.220;6.528;2022-08-19T11:10:53;30.20;99.90
52965;DHT22;42923;53.220;6.528;2022-08-19T11:13:22;30.50;99.90
52965;DHT22;42923;53.220;6.528;2022-08-19T11:15:56;30.70;99.90
52965;DHT22;42923;53.220;6.528;2022-08-19T11:18:22;30.90;99.90
52965;DHT22;42923;53.220;6.528;2022-08-19T11:20:48;31.10;99.90
52965;DHT22;42923;53.220;6.528;2022-08-19T11:23:14;31.30;99.90
52965;DHT22;42923;53.220;6.528;2022-08-19T11:25:40;31.20;99.90
52965;DHT22;42923;53.220;6.528;2022-08-19T11:28:05;31.40;99.90
52965;DHT22;42923;53.220;6.528;2022-08-19T11:30:31;31.40;99.90
52965;DHT22;42923;53.220;6.528;2022-08-19T11:32:58;31.00;99.90
52965;DHT22;42923;53.220;6.528;2022-08-19T11:35:26;30.80;99.90
52965;DHT22;42923;53.220;6.528;2022-08-19T11:37:52;30.50;99.90
52965;DHT22;42923;53.220;6.528;2022-08-19T11:40:17;30.50;99.90
52965;DHT22;42923;53.220;6.528;2022-08-19T11:42:43;30.40;99.90
52965;DHT22;42923;53.220;6.528;2022-08-19T11:45:27;30.30;99.90
52965;DHT22;42923;53.220;6.528;2022-08-19T11:47:53;29.80;97.80
52965;DHT22;42923;53.220;6.528;2022-08-19T11:50:19;29.50;99.90
52965;DHT22;42923;53.220;6.528;2022-08-19T11:52:46;29.10;99.90
52965;DHT22;42923;53.220;6.528;2022-08-19T11:55:13;28.90;99.90
52965;DHT22;42923;53.220;6.528;2022-08-19T11:57:39;28.60;99.90
52965;DHT22;42923;53.220;6.528;2022-08-19T12:00:07;28.40;99.90
52965;DHT22;42923;53.220;6.528;2022-08-19T12:02:33;28.30;99.90
52965;DHT22;42923;53.220;6.528;2022-08-19T12:04:59;28.30;99.90
52965;DHT22;42923;53.220;6.528;2022-08-19T12:07:27;28.30;99.90
52965;DHT22;42923;53.220;6.528;2022-08-19T12:09:54;28.40;99.90
52965;DHT22;42923;53.220;6.528;2022-08-19T12:12:20;28.50;99.90
52965;DHT22;42923;53.220;6.528;2022-08-19T12:14:46;28.50;99.90
52965;DHT22;42923;53.220;6.528;2022-08-19T12:17:12;28.50;99.90
52965;DHT22;42923;53.220;6.528;2022-08-19T12:19:38;28.40;99.90
52965;DHT22;42923;53.220;6.528;2022-08-19T12:22:05;28.30;99.90
52965;DHT22;42923;53.220;6.528;2022-08-19T12:24:32;28.10;99.90
52965;DHT22;42923;53.220;6.528;2022-08-19T12:26:58;27.90;99.90
52965;DHT22;42923;53.220;6.528;2022-08-19T12:29:27;27.90;99.90
52965;DHT22;42923;53.220;6.528;2022-08-19T12:31:54;27.90;99.90
52965;DHT22;42923;53.220;6.528;2022-08-19T12:34:19;28.10;99.90
52965;DHT22;42923;53.220;6.528;2022-08-19T12:36:45;28.30;99.90
52965;DHT22;42923;53.220;6.528;2022-08-19T12:39:11;28.60;99.90
52965;DHT22;42923;53.220;6.528;2022-08-19T12:41:37;28.80;99.90
52965;DHT22;42923;53.220;6.528;2022-08-19T12:44:03;28.90;99.90
52965;DHT22;42923;53.220;6.528;2022-08-19T12:46:29;29.00;99.90
52965;DHT22;42923;53.220;6.528;2022-08-19T12:48:54;28.90;99.90
52965;DHT22;42923;53.220;6.528;2022-08-19T12:51:21;28.80;99.90
52965;DHT22;42923;53.220;6.528;2022-08-19T12:53:47;28.70;99.90
52965;DHT22;42923;53.220;6.528;2022-08-19T12:56:15;28.50;99.90
52965;DHT22;42923;53.220;6.528;2022-08-19T12:58:42;28.30;99.90
52965;DHT22;42923;53.220;6.528;2022-08-19T13:01:12;28.10;99.90
52965;DHT22;42923;53.220;6.528;2022-08-19T13:03:38;28.00;99.90
52965;DHT22;42923;53.220;6.528;2022-08-19T13:06:05;27.90;99.90
52965;DHT22;42923;53.220;6.528;2022-08-19T13:08:31;27.60;99.90
52965;DHT22;42923;53.220;6.528;2022-08-19T13:10:57;27.60;99.90
52965;DHT22;42923;53.220;6.528;2022-08-19T13:13:23;27.40;99.90
52965;DHT22;42923;53.220;6.528;2022-08-19T13:15:50;27.30;99.90
52965;DHT22;42923;53.220;6.528;2022-08-19T13:18:16;27.40;99.90
52965;DHT22;42923;53.220;6.528;2022-08-19T13:20:42;27.50;99.90
52965;DHT22;42923;53.220;6.528;2022-08-19T13:23:08;27.70;99.90
52965;DHT22;42923;53.220;6.528;2022-08-19T13:25:34;27.80;99.90
52965;DHT22;42923;53.220;6.528;2022-08-19T13:28:02;27.90;99.90
52965;DHT22;42923;53.220;6.528;2022-08-19T13:30:27;28.00;99.90
52965;DHT22;42923;53.220;6.528;2022-08-19T13:33:12;28.30;99.90
52965;DHT22;42923;53.220;6.528;2022-08-19T13:35:48;28.50;99.90
52965;DHT22;42923;53.220;6.528;2022-08-19T13:38:16;28.40;99.90
52965;DHT22;42923;53.220;6.528;2022-08-19T13:40:42;28.30;99.90
52965;DHT22;42923;53.220;6.528;2022-08-19T13:43:08;28.10;99.90
52965;DHT22;42923;53.220;6.528;2022-08-19T13:45:35;27.70;99.90
52965;DHT22;42923;53.220;6.528;2022-08-19T13:48:03;27.50;99.90
52965;DHT22;42923;53.220;6.528;2022-08-19T13:50:39;27.30;99.90
52965;DHT22;42923;53.220;6.528;2022-08-19T13:53:08;26.90;99.90
52965;DHT22;42923;53.220;6.528;2022-08-19T13:55:34;26.60;99.90
52965;DHT22;42923;53.220;6.528;2022-08-19T13:58:01;26.40;99.90
52965;DHT22;42923;53.220;6.528;2022-08-19T14:00:30;26.30;99.90
52965;DHT22;42923;53.220;6.528;2022-08-19T14:02:57;26.30;99.90
52965;DHT22;42923;53.220;6.528;2022-08-19T14:05:25;26.30;99.90
52965;DHT22;42923;53.220;6.528;2022-08-19T14:07:51;26.20;99.90
52965;DHT22;42923;53.220;6.528;2022-08-19T14:10:17;26.10;99.90
52965;DHT22;42923;53.220;6.528;2022-08-19T14:12:44;26.00;99.90
52965;DHT22;42923;53.220;6.528;2022-08-19T14:15:11;25.90;99.90
52965;DHT22;42923;53.220;6.528;2022-08-19T14:17:38;25.90;99.90
52965;DHT22;42923;53.220;6.528;2022-08-19T14:20:07;25.70;99.90
52965;DHT22;42923;53.220;6.528;2022-08-19T14:22:36;25.60;99.90
52965;DHT22;42923;53.220;6.528;2022-08-19T14:25:03;25.50;99.90
52965;DHT22;42923;53.220;6.528;2022-08-19T14:27:33;25.40;99.90
52965;DHT22;42923;53.220;6.528;2022-08-19T14:29:58;25.60;99.90
52965;DHT22;42923;53.220;6.528;2022-08-19T14:32:24;25.80;99.90
52965;DHT22;42923;53.220;6.528;2022-08-19T14:34:53;26.10;99.90
52965;DHT22;42923;53.220;6.528;2022-08-19T14:37:18;26.40;99.90
52965;DHT22;42923;53.220;6.528;2022-08-19T14:39:44;26.50;99.90
52965;DHT22;42923;53.220;6.528;2022-08-19T14:42:11;26.50;99.90
52965;DHT22;42923;53.220;6.528;2022-08-19T14:44:37;26.50;99.90
52965;DHT22;42923;53.220;6.528;2022-08-19T14:47:03;26.40;99.90
52965;DHT22;42923;53.220;6.528;2022-08-19T14:49:29;26.40;99.90
52965;DHT22;42923;53.220;6.528;2022-08-19T14:51:55;26.40;99.90
52965;DHT22;42923;53.220;6.528;2022-08-19T14:54:22;26.50;99.90
52965;DHT22;42923;53.220;6.528;2022-08-19T14:56:47;26.50;99.90
52965;DHT22;42923;53.220;6.528;2022-08-19T14:59:14;26.50;99.90
52965;DHT22;42923;53.220;6.528;2022-08-19T15:01:40;26.60;99.90
52965;DHT22;42923;53.220;6.528;2022-08-19T15:04:05;26.70;99.90
52965;DHT22;42923;53.220;6.528;2022-08-19T15:06:31;26.70;99.90
52965;DHT22;42923;53.220;6.528;2022-08-19T15:08:57;26.90;99.90
52965;DHT22;42923;53.220;6.528;2022-08-19T15:11:25;27.00;99.90
52965;DHT22;42923;53.220;6.528;2022-08-19T15:13:54;27.20;99.90
52965;DHT22;42923;53.220;6.528;2022-08-19T15:16:21;27.40;99.90
52965;DHT22;42923;53.220;6.528;2022-08-19T15:18:52;27.50;99.90
52965;DHT22;42923;53.220;6.528;2022-08-19T15:21:18;27.60;99.90
52965;DHT22;42923;53.220;6.528;2022-08-19T15:23:48;27.70;99.90
52965;DHT22;42923;53.220;6.528;2022-08-19T15:26:15;27.70;99.90
52965;DHT22;42923;53.220;6.528;2022-08-19T15:28:41;27.70;99.90
52965;DHT22;42923;53.220;6.528;2022-08-19T15:31:08;27.80;99.90
52965;DHT22;42923;53.220;6.528;2022-08-19T15:33:35;27.80;99.90
52965;DHT22;42923;53.220;6.528;2022-08-19T15:36:06;27.70;99.90
52965;DHT22;42923;53.220;6.528;2022-08-19T15:38:33;27.40;99.90
52965;DHT22;42923;53.220;6.528;2022-08-19T15:41:01;27.20;99.90